createdAt,value
2017-08-26T00:01:20.328Z,76.96
2017-08-26T00:03:47.949Z,76.75
2017-08-26T00:06:15.576Z,77.05
2017-08-26T00:08:43.191Z,77.35
2017-08-26T00:11:10.916Z,77.48
2017-08-26T00:13:38.545Z,77.63
2017-08-26T00:16:06.156Z,77.41
2017-08-26T00:18:34.275Z,77.64
2017-08-26T00:21:01.888Z,77.91
2017-08-26T00:23:29.592Z,78.23
2017-08-26T00:25:57.222Z,78.69
2017-08-26T00:28:24.792Z,78.25
2017-08-26T00:30:52.682Z,78.79
2017-08-26T00:33:20.300Z,78.52
2017-08-26T00:35:47.875Z,78.92
2017-08-26T00:38:15.488Z,79.38
2017-08-26T00:40:43.095Z,78.91
2017-08-26T00:43:10.711Z,79.30
2017-08-26T00:45:38.301Z,78.97
2017-08-26T00:48:06.029Z,78.52
2017-08-26T00:50:33.619Z,79.09
2017-08-26T00:53:01.632Z,78.99
2017-08-26T00:55:29.266Z,79.52
2017-08-26T00:57:56.891Z,79.42
2017-08-26T01:00:24.528Z,78.75
2017-08-26T01:02:52.107Z,79.07
2017-08-26T01:05:19.724Z,79.42
2017-08-26T01:07:47.336Z,79.41
2017-08-26T01:10:14.988Z,79.80
2017-08-26T01:12:42.586Z,80.17
2017-08-26T01:15:10.261Z,80.43
2017-08-26T01:17:37.887Z,80.19
2017-08-26T01:20:05.937Z,79.93
2017-08-26T01:22:33.605Z,79.62
2017-08-26T01:25:01.196Z,79.96
2017-08-26T01:27:28.836Z,80.23
2017-08-26T01:29:56.441Z,79.85
2017-08-26T01:32:24.052Z,80.34
2017-08-26T01:34:51.643Z,80.10
2017-08-26T01:37:19.549Z,80.16
2017-08-26T01:39:47.343Z,80.42
2017-08-26T01:42:15.051Z,80.32
2017-08-26T01:44:42.701Z,81.18
2017-08-26T01:47:10.458Z,80.87
2017-08-26T01:49:38.118Z,81.21
2017-08-26T01:52:05.724Z,81.49
2017-08-26T01:54:33.323Z,80.84
2017-08-26T01:57:00.931Z,81.41
2017-08-26T01:59:28.926Z,81.68
2017-08-26T02:01:56.522Z,81.80
2017-08-26T02:04:24.107Z,81.59
2017-08-26T02:06:51.738Z,81.63
2017-08-26T02:09:19.347Z,81.74
2017-08-26T02:11:46.946Z,81.40
2017-08-26T02:14:14.539Z,81.32
2017-08-26T02:16:42.141Z,81.59
2017-08-26T02:19:09.746Z,81.30
2017-08-26T02:21:37.368Z,81.11
2017-08-26T02:24:04.987Z,81.04
2017-08-26T02:26:32.565Z,81.27
2017-08-26T02:29:00.174Z,81.03
2017-08-26T02:31:27.787Z,81.42
2017-08-26T02:33:55.416Z,81.29
2017-08-26T02:36:23.031Z,81.46
2017-08-26T02:38:51.074Z,81.46
2017-08-26T02:41:18.675Z,81.47
2017-08-26T02:43:46.294Z,81.51
2017-08-26T02:46:13.975Z,81.38
2017-08-26T02:48:41.549Z,81.19
2017-08-26T02:51:09.180Z,81.64
2017-08-26T02:53:36.790Z,82.04
2017-08-26T02:56:04.405Z,82.37
2017-08-26T02:58:32.173Z,82.10
2017-08-26T03:00:59.888Z,82.27
2017-08-26T03:03:28.007Z,81.61
2017-08-26T03:05:56.010Z,82.04
2017-08-26T03:08:23.604Z,81.95
2017-08-26T03:10:51.196Z,81.80
2017-08-26T03:13:18.792Z,81.79
2017-08-26T03:15:46.392Z,81.85
2017-08-26T03:18:14.009Z,81.80
2017-08-26T03:20:41.614Z,82.06
2017-08-26T03:23:09.244Z,82.07
2017-08-26T03:25:36.849Z,83.16
2017-08-26T03:28:04.733Z,83.46
2017-08-26T03:30:32.454Z,83.72
2017-08-26T03:33:00.042Z,83.94
2017-08-26T03:35:27.678Z,84.19
2017-08-26T03:37:55.282Z,83.81
2017-08-26T03:40:22.906Z,83.83
2017-08-26T03:42:50.510Z,83.54
2017-08-26T03:45:18.144Z,83.78
2017-08-26T03:47:45.885Z,83.66
2017-08-26T03:50:13.499Z,83.89
2017-08-26T03:52:41.103Z,84.16
2017-08-26T03:55:09.146Z,84.10
2017-08-26T03:57:36.787Z,84.32
2017-08-26T04:00:04.392Z,84.61
2017-08-26T04:02:32.004Z,84.43
2017-08-26T04:04:59.609Z,84.61
2017-08-26T04:07:27.212Z,85.16
2017-08-26T04:09:54.956Z,85.03
2017-08-26T04:12:22.584Z,85.40
2017-08-26T04:14:50.190Z,85.61
2017-08-26T04:17:18.089Z,85.51
2017-08-26T04:19:45.696Z,85.70
2017-08-26T04:22:13.460Z,85.74
2017-08-26T04:24:41.076Z,85.71
2017-08-26T04:27:08.709Z,85.59
2017-08-26T04:29:36.434Z,85.61
2017-08-26T04:32:04.010Z,85.33
2017-08-26T04:34:31.616Z,84.84
2017-08-26T04:36:59.190Z,85.06
2017-08-26T04:39:27.186Z,85.10
2017-08-26T04:41:54.787Z,84.97
2017-08-26T04:44:22.381Z,84.69
2017-08-26T04:46:50.002Z,84.58
2017-08-26T04:49:17.608Z,84.63
2017-08-26T04:51:45.225Z,84.91
2017-08-26T04:54:12.831Z,84.82
2017-08-26T04:56:40.437Z,84.79
2017-08-26T04:59:08.032Z,84.78
2017-08-26T05:01:36.027Z,84.79
2017-08-26T05:04:03.626Z,84.34
2017-08-26T05:06:31.259Z,84.47
2017-08-26T05:08:58.842Z,84.49
2017-08-26T05:11:26.437Z,85.43
2017-08-26T05:13:54.075Z,84.66
2017-08-26T05:16:21.716Z,83.69
2017-08-26T05:18:49.657Z,83.53
2017-08-26T05:21:17.254Z,83.70
2017-08-26T05:23:44.868Z,83.87
2017-08-26T05:26:12.477Z,84.46
2017-08-26T05:28:40.086Z,84.64
2017-08-26T05:31:07.705Z,84.57
2017-08-26T05:33:35.299Z,84.72
2017-08-26T05:36:02.934Z,84.86
2017-08-26T05:38:30.528Z,84.77
2017-08-26T05:40:58.144Z,85.04
2017-08-26T05:43:25.769Z,84.74
2017-08-26T05:45:53.708Z,84.64
2017-08-26T05:48:21.289Z,84.65
2017-08-26T05:50:48.876Z,84.30
2017-08-26T05:53:16.509Z,84.17
2017-08-26T05:55:44.182Z,85.17
2017-08-26T05:58:11.956Z,85.89
2017-08-26T06:00:39.543Z,85.82
2017-08-26T06:03:07.234Z,85.31
2017-08-26T06:05:34.871Z,84.88
2017-08-26T06:08:02.816Z,85.12
2017-08-26T06:10:30.503Z,84.68
2017-08-26T06:12:58.132Z,84.77
2017-08-26T06:15:25.781Z,84.57
2017-08-26T06:17:53.408Z,84.15
2017-08-26T06:20:21.048Z,84.12
2017-08-26T06:22:48.626Z,84.11
2017-08-26T06:25:16.277Z,84.24
2017-08-26T06:27:43.895Z,83.85
2017-08-26T06:30:11.612Z,83.75
2017-08-26T06:32:39.221Z,83.92
2017-08-26T06:35:07.148Z,83.38
2017-08-26T06:37:34.740Z,82.65
2017-08-26T06:40:02.357Z,82.57
2017-08-26T06:42:29.990Z,82.83
2017-08-26T06:44:57.681Z,82.17
2017-08-26T06:47:25.301Z,82.46
2017-08-26T06:49:52.947Z,81.80
2017-08-26T06:52:21.055Z,81.37
2017-08-26T06:54:48.652Z,81.28
2017-08-26T06:57:16.296Z,80.59
2017-08-26T06:59:43.957Z,80.43
2017-08-26T07:02:11.542Z,79.87
2017-08-26T07:04:39.155Z,80.23
2017-08-26T07:07:06.792Z,80.48
2017-08-26T07:09:34.713Z,80.37
2017-08-26T07:12:02.323Z,80.12
2017-08-26T07:14:30.052Z,80.50
2017-08-26T07:16:57.738Z,80.08
2017-08-26T07:19:25.373Z,80.24
2017-08-26T07:21:52.986Z,79.51
2017-08-26T07:24:20.582Z,80.23
2017-08-26T07:26:48.231Z,79.53
2017-08-26T07:29:19.628Z,78.76
2017-08-26T07:31:47.256Z,78.64
2017-08-26T07:34:14.861Z,78.53
2017-08-26T07:36:42.867Z,77.11
2017-08-26T07:39:10.501Z,77.19
2017-08-26T07:41:38.229Z,76.32
2017-08-26T07:44:05.863Z,76.55
2017-08-26T07:46:33.454Z,76.06
2017-08-26T07:49:01.088Z,76.42
2017-08-26T07:51:28.705Z,74.84
2017-08-26T07:53:56.370Z,76.10
2017-08-26T07:56:23.995Z,74.26
2017-08-26T07:58:51.617Z,74.42
2017-08-26T08:01:19.212Z,74.89
2017-08-26T08:03:46.818Z,74.07
2017-08-26T08:06:14.434Z,73.23
2017-08-26T08:08:42.177Z,73.40
2017-08-26T08:11:09.806Z,73.10
2017-08-26T08:13:37.402Z,72.07
2017-08-26T08:16:05.033Z,72.20
2017-08-26T08:18:32.698Z,72.69
2017-08-26T08:21:00.714Z,69.13
2017-08-26T08:23:28.323Z,68.62
2017-08-26T08:25:55.932Z,68.87
2017-08-26T08:28:23.566Z,67.73
2017-08-26T08:30:51.192Z,67.40
2017-08-26T08:33:18.815Z,68.40
2017-08-26T08:35:46.438Z,68.16
2017-08-26T08:38:14.218Z,66.99
2017-08-26T08:40:41.813Z,66.97
2017-08-26T08:43:09.462Z,67.17
2017-08-26T08:45:37.072Z,65.59
2017-08-26T08:48:04.663Z,67.64
2017-08-26T08:50:32.293Z,64.08
2017-08-26T08:52:59.914Z,65.37
2017-08-26T08:55:27.537Z,64.82
2017-08-26T08:57:55.127Z,65.57
2017-08-26T09:00:22.773Z,64.09
2017-08-26T09:02:50.401Z,64.52
2017-08-26T09:05:18.020Z,64.55
2017-08-26T09:07:45.620Z,64.43
2017-08-26T09:10:13.642Z,64.72
2017-08-26T09:12:41.361Z,65.22
2017-08-26T09:15:08.973Z,65.17
2017-08-26T09:17:36.584Z,64.21
2017-08-26T09:20:04.161Z,64.65
2017-08-26T09:22:31.803Z,64.95
2017-08-26T09:24:59.406Z,63.38
2017-08-26T09:27:27.343Z,63.13
2017-08-26T09:29:54.960Z,64.11
2017-08-26T09:32:22.627Z,65.16
2017-08-26T09:34:50.373Z,62.56
2017-08-26T09:37:17.962Z,61.52
2017-08-26T09:39:45.653Z,61.40
2017-08-26T09:42:13.367Z,60.64
2017-08-26T09:44:41.344Z,60.91
2017-08-26T09:47:08.946Z,61.57
2017-08-26T09:49:36.532Z,59.76
2017-08-26T09:52:04.130Z,60.51
2017-08-26T09:54:31.692Z,62.01
2017-08-26T09:56:59.463Z,60.95
2017-08-26T09:59:27.095Z,60.64
2017-08-26T10:01:54.878Z,59.85
2017-08-26T10:04:22.547Z,60.91
2017-08-26T10:06:50.185Z,59.95
2017-08-26T10:09:17.785Z,60.32
2017-08-26T10:11:45.703Z,60.43
2017-08-26T10:14:13.290Z,59.00
2017-08-26T10:16:40.890Z,61.26
2017-08-26T10:19:08.498Z,59.75
2017-08-26T10:21:36.087Z,57.60
2017-08-26T10:24:03.710Z,57.89
2017-08-26T10:26:31.316Z,59.44
2017-08-26T10:28:58.966Z,58.90
2017-08-26T10:31:26.583Z,57.86
2017-08-26T10:33:54.209Z,56.91
2017-08-26T10:36:21.818Z,58.61
2017-08-26T10:38:49.421Z,55.91
2017-08-26T10:41:17.038Z,55.19
2017-08-26T10:43:44.608Z,53.78
2017-08-26T10:46:12.205Z,54.28
2017-08-26T10:48:39.942Z,54.58
2017-08-26T10:51:07.670Z,54.25
2017-08-26T10:53:35.292Z,54.80
2017-08-26T10:56:03.351Z,55.67
2017-08-26T10:58:30.931Z,54.91
2017-08-26T11:00:58.631Z,54.46
2017-08-26T11:03:26.259Z,53.96
2017-08-26T11:05:53.846Z,54.83
2017-08-26T11:08:21.676Z,53.46
2017-08-26T11:10:49.310Z,55.46
2017-08-26T11:13:16.911Z,54.07
2017-08-26T11:15:44.520Z,52.22
2017-08-26T11:18:12.165Z,54.60
2017-08-26T11:20:39.770Z,53.31
2017-08-26T11:23:07.710Z,52.40
2017-08-26T11:25:43.623Z,51.21
2017-08-26T11:28:11.639Z,50.99
2017-08-26T11:30:39.239Z,50.67
2017-08-26T11:33:06.853Z,50.62
2017-08-26T11:35:34.497Z,49.40
2017-08-26T11:38:02.062Z,53.53
2017-08-26T11:40:29.657Z,51.42
2017-08-26T11:42:57.234Z,51.13
2017-08-26T11:47:58.611Z,52.83
2017-08-26T11:50:26.262Z,55.08
2017-08-26T11:52:53.865Z,55.31
2017-08-26T11:55:21.797Z,55.04
2017-08-26T11:57:49.408Z,55.80
2017-08-26T12:00:17.114Z,54.69
2017-08-26T12:02:44.707Z,52.51
2017-08-26T12:05:12.295Z,55.15
2017-08-26T12:07:39.925Z,54.70
2017-08-26T12:10:07.553Z,51.55
2017-08-26T12:12:35.487Z,53.55
2017-08-26T12:15:03.098Z,50.88
2017-08-26T12:17:30.733Z,50.69
2017-08-26T12:19:58.352Z,51.25
2017-08-26T12:22:25.966Z,51.76
2017-08-26T12:24:53.616Z,50.08
2017-08-26T12:27:21.230Z,54.13
2017-08-26T12:29:48.890Z,50.14
2017-08-26T12:32:16.492Z,49.63
2017-08-26T12:34:44.463Z,48.89
2017-08-26T12:37:12.284Z,49.58
2017-08-26T12:39:39.914Z,48.65
2017-08-26T12:42:07.508Z,48.38
2017-08-26T12:44:35.110Z,49.55
2017-08-26T12:47:03.074Z,49.05
2017-08-26T12:49:30.673Z,50.61
2017-08-26T12:51:58.326Z,48.72
2017-08-26T12:54:25.980Z,47.40
2017-08-26T12:56:53.568Z,48.78
2017-08-26T12:59:21.201Z,50.22
2017-08-26T13:01:48.807Z,46.70
2017-08-26T13:04:16.415Z,46.29
2017-08-26T13:06:44.020Z,48.55
2017-08-26T13:09:12.069Z,48.83
2017-08-26T13:11:39.674Z,46.32
2017-08-26T13:14:07.244Z,47.77
2017-08-26T13:16:34.867Z,47.05
2017-08-26T13:19:02.503Z,47.39
2017-08-26T13:21:30.124Z,48.71
2017-08-26T13:23:57.731Z,44.54
2017-08-26T13:26:25.687Z,48.57
2017-08-26T13:28:53.282Z,50.39
2017-08-26T13:31:20.919Z,49.06
2017-08-26T13:33:48.506Z,49.28
2017-08-26T13:36:16.112Z,47.48
2017-08-26T13:38:43.738Z,43.75
2017-08-26T13:41:11.359Z,45.40
2017-08-26T13:43:39.436Z,46.18
2017-08-26T13:46:07.019Z,46.42
2017-08-26T13:48:34.663Z,44.73
2017-08-26T13:51:02.390Z,44.00
2017-08-26T13:53:29.990Z,46.59
2017-08-26T13:55:57.658Z,43.41
2017-08-26T13:58:25.388Z,46.11
2017-08-26T14:00:53.010Z,43.57
2017-08-26T14:03:20.610Z,43.30
2017-08-26T14:05:48.317Z,42.36
2017-08-26T14:08:15.910Z,43.05
2017-08-26T14:10:44.028Z,46.31
2017-08-26T14:13:11.734Z,44.60
2017-08-26T14:15:39.344Z,39.81
2017-08-26T14:18:07.892Z,43.98
2017-08-26T14:20:35.502Z,41.24
2017-08-26T14:23:03.118Z,40.77
2017-08-26T14:25:30.729Z,41.83
2017-08-26T14:27:58.354Z,42.19
2017-08-26T14:30:25.955Z,42.66
2017-08-26T14:32:53.594Z,41.21
2017-08-26T14:35:21.193Z,39.61
2017-08-26T14:37:49.107Z,37.89
2017-08-26T14:40:16.724Z,37.38
2017-08-26T14:42:44.317Z,37.90
2017-08-26T14:45:11.954Z,37.00
2017-08-26T14:47:39.528Z,36.54
2017-08-26T14:50:07.126Z,38.98
2017-08-26T14:52:34.804Z,39.36
2017-08-26T14:55:02.426Z,37.30
2017-08-26T14:57:30.040Z,36.47
2017-08-26T14:59:57.829Z,40.51
2017-08-26T15:02:25.460Z,36.10
2017-08-26T15:04:53.071Z,36.78
2017-08-26T15:07:20.673Z,38.42
2017-08-26T15:09:48.589Z,38.78
2017-08-26T15:12:16.197Z,38.95
2017-08-26T15:14:43.799Z,37.03
2017-08-26T15:17:11.429Z,38.67
2017-08-26T15:19:39.012Z,35.87
2017-08-26T15:22:06.852Z,36.84
2017-08-26T15:24:34.446Z,38.71
2017-08-26T15:27:02.057Z,37.72
2017-08-26T15:29:29.675Z,35.82
2017-08-26T15:31:57.604Z,36.26
2017-08-26T15:34:25.221Z,36.83
2017-08-26T15:36:52.848Z,37.93
2017-08-26T15:39:20.463Z,38.65
2017-08-26T15:41:48.047Z,38.54
2017-08-26T15:44:15.712Z,39.02
2017-08-26T15:46:43.305Z,39.56
2017-08-26T15:49:10.921Z,39.00
2017-08-26T15:51:38.545Z,39.67
2017-08-26T15:54:06.215Z,41.00
2017-08-26T15:56:33.862Z,41.51
2017-08-26T15:59:01.885Z,40.84
2017-08-26T16:01:29.591Z,40.33
2017-08-26T16:03:57.193Z,41.79
2017-08-26T16:06:24.847Z,40.75
2017-08-26T16:08:52.458Z,40.41
2017-08-26T16:11:20.061Z,40.72
2017-08-26T16:13:47.649Z,40.10
2017-08-26T16:16:15.253Z,41.14
2017-08-26T16:18:42.860Z,41.14
2017-08-26T16:21:10.479Z,41.99
2017-08-26T16:23:38.100Z,41.93
2017-08-26T16:26:05.704Z,42.02
2017-08-26T16:28:33.303Z,40.97
2017-08-26T16:31:01.271Z,41.28
2017-08-26T16:33:28.861Z,41.14
2017-08-26T16:35:56.446Z,41.54
2017-08-26T16:38:24.204Z,41.70
2017-08-26T16:40:51.777Z,42.01
2017-08-26T16:43:19.508Z,42.87
2017-08-26T16:45:47.129Z,40.96
2017-08-26T16:48:14.726Z,42.83
2017-08-26T16:50:42.397Z,44.87
2017-08-26T16:53:10.460Z,43.76
2017-08-26T16:55:38.060Z,44.24
2017-08-26T16:58:06.062Z,44.31
2017-08-26T17:00:33.627Z,43.97
2017-08-26T17:03:01.213Z,44.37
2017-08-26T17:05:28.835Z,44.50
2017-08-26T17:07:56.451Z,44.29
2017-08-26T17:10:24.076Z,45.17
2017-08-26T17:12:51.868Z,44.86
2017-08-26T17:15:19.491Z,45.12
2017-08-26T17:17:47.089Z,45.26
2017-08-26T17:20:14.724Z,45.90
2017-08-26T17:22:42.329Z,46.07
2017-08-26T17:25:10.228Z,45.46
2017-08-26T17:27:37.968Z,46.65
2017-08-26T17:30:05.570Z,47.11
2017-08-26T17:32:33.185Z,47.67
2017-08-26T17:35:01.733Z,48.96
2017-08-26T17:37:29.365Z,49.52
2017-08-26T17:39:56.987Z,49.45
2017-08-26T17:42:24.612Z,50.74
2017-08-26T17:44:52.219Z,51.41
2017-08-26T17:47:19.882Z,52.26
2017-08-26T17:49:47.473Z,53.18
2017-08-26T17:52:15.429Z,53.42
2017-08-26T17:54:43.014Z,53.00
2017-08-26T17:57:10.639Z,53.63
2017-08-26T17:59:38.366Z,54.27
2017-08-26T18:02:05.991Z,54.97
2017-08-26T18:04:33.687Z,54.68
2017-08-26T18:07:01.304Z,56.35
2017-08-26T18:09:29.087Z,56.43
2017-08-26T18:11:56.662Z,56.82
2017-08-26T18:14:24.282Z,57.00
2017-08-26T18:16:51.946Z,57.46
2017-08-26T18:19:19.575Z,58.18
2017-08-26T18:21:47.446Z,58.97
2017-08-26T18:24:15.093Z,58.94
2017-08-26T18:26:42.688Z,60.06
2017-08-26T18:29:10.304Z,60.32
2017-08-26T18:31:37.907Z,60.54
2017-08-26T18:36:45.038Z,61.51
2017-08-26T18:39:13.015Z,61.41
2017-08-26T18:41:40.656Z,61.80
2017-08-26T18:44:08.293Z,62.10
2017-08-26T18:46:35.935Z,62.49
2017-08-26T18:49:03.502Z,62.85
2017-08-26T18:51:31.122Z,63.62
2017-08-26T18:53:58.722Z,63.72
2017-08-26T18:56:26.641Z,63.48
2017-08-26T18:58:54.341Z,63.59
2017-08-26T19:01:22.039Z,64.15
2017-08-26T19:03:49.670Z,64.63
2017-08-26T19:06:17.425Z,65.71
2017-08-26T19:08:45.379Z,66.48
2017-08-26T19:11:12.968Z,66.64
2017-08-26T19:13:40.563Z,67.56
2017-08-26T19:16:08.211Z,67.64
2017-08-26T19:18:35.823Z,67.60
2017-08-26T19:21:03.520Z,68.26
2017-08-26T19:23:31.111Z,68.78
2017-08-26T19:25:58.797Z,69.35
2017-08-26T19:28:26.413Z,69.24
2017-08-26T19:30:54.346Z,70.20
2017-08-26T19:33:21.966Z,70.53
2017-08-26T19:35:49.567Z,70.43
2017-08-26T19:38:17.175Z,70.88
2017-08-26T19:40:44.939Z,71.17
2017-08-26T19:43:13.889Z,71.06
2017-08-26T19:45:41.513Z,71.27
2017-08-26T19:48:10.817Z,71.53
2017-08-26T19:50:38.419Z,71.61
2017-08-26T19:53:06.068Z,71.92
2017-08-26T19:55:33.653Z,71.56
2017-08-26T19:58:01.222Z,72.48
2017-08-26T20:00:29.569Z,72.75
2017-08-26T20:02:57.160Z,72.32
2017-08-26T20:05:24.798Z,72.80
2017-08-26T20:07:52.401Z,73.39
2017-08-26T20:10:20.447Z,72.97
2017-08-26T20:12:48.079Z,72.91
2017-08-26T20:15:15.667Z,72.81
2017-08-26T20:17:43.280Z,73.34
2017-08-26T20:20:10.918Z,73.33
2017-08-26T20:22:38.587Z,74.04
2017-08-26T20:25:06.184Z,74.40
2017-08-26T20:27:33.825Z,74.20
2017-08-26T20:30:01.433Z,74.34
2017-08-26T20:32:29.377Z,74.06
2017-08-26T20:34:56.955Z,73.29
2017-08-26T20:37:24.576Z,71.85
2017-08-26T20:39:52.222Z,71.65
2017-08-26T20:42:19.948Z,71.29
2017-08-26T20:44:47.602Z,70.80
2017-08-26T20:47:15.286Z,70.58
2017-08-26T20:49:42.916Z,70.12
2017-08-26T20:52:10.534Z,70.08
2017-08-26T20:54:38.583Z,70.02
2017-08-26T20:57:06.215Z,70.03
2017-08-26T20:59:33.828Z,69.89
2017-08-26T21:02:01.466Z,69.77
2017-08-26T21:04:29.080Z,70.17
2017-08-26T21:06:56.719Z,70.06
2017-08-26T21:09:24.571Z,70.31
2017-08-26T21:11:52.532Z,70.52
2017-08-26T21:14:20.193Z,70.85
2017-08-26T21:16:47.923Z,71.23
2017-08-26T21:19:15.576Z,71.31
2017-08-26T21:21:43.182Z,71.05
2017-08-26T21:24:11.256Z,71.24
2017-08-26T21:26:38.869Z,71.71
2017-08-26T21:29:06.501Z,72.68
2017-08-26T21:31:34.117Z,73.16
2017-08-26T21:34:01.745Z,73.67
2017-08-26T21:36:29.490Z,74.28
2017-08-26T21:38:57.111Z,74.45
2017-08-26T21:41:26.508Z,74.81
2017-08-26T21:43:54.118Z,75.01
2017-08-26T21:46:21.833Z,74.95
2017-08-26T21:48:49.497Z,75.45
2017-08-26T21:51:17.097Z,75.47
2017-08-26T21:53:44.732Z,75.38
2017-08-26T21:56:12.363Z,75.49
2017-08-26T21:58:40.076Z,75.53
2017-08-26T22:01:07.786Z,75.50
2017-08-26T22:03:35.691Z,75.55
2017-08-26T22:06:03.295Z,75.20
2017-08-26T22:08:30.900Z,75.18
2017-08-26T22:10:58.657Z,75.01
2017-08-26T22:13:26.260Z,75.16
2017-08-26T22:15:53.864Z,75.83
2017-08-26T22:18:21.458Z,74.78
2017-08-26T22:20:49.408Z,74.43
2017-08-26T22:23:17.038Z,74.36
2017-08-26T22:25:44.742Z,73.56
2017-08-26T22:28:12.350Z,73.22
2017-08-26T22:30:39.964Z,73.82
2017-08-26T22:33:07.633Z,73.41
2017-08-26T22:35:35.335Z,74.13
2017-08-26T22:38:02.950Z,74.80
2017-08-26T22:40:30.546Z,74.64
2017-08-26T22:42:58.204Z,74.90
2017-08-26T22:45:25.793Z,75.26
2017-08-26T22:47:53.681Z,75.40
2017-08-26T22:50:21.302Z,76.09
2017-08-26T22:52:49.034Z,75.83
2017-08-26T22:55:16.826Z,75.98
2017-08-26T22:57:44.454Z,76.64
2017-08-26T23:00:12.103Z,77.32
2017-08-26T23:02:39.687Z,77.31
2017-08-26T23:05:07.327Z,77.95
2017-08-26T23:07:34.950Z,78.33
2017-08-26T23:10:02.547Z,78.44
2017-08-26T23:12:30.169Z,78.44
2017-08-26T23:14:58.974Z,78.51
2017-08-26T23:17:26.609Z,78.47
2017-08-26T23:19:54.217Z,78.23
2017-08-26T23:22:22.177Z,77.76
2017-08-26T23:24:49.778Z,77.79
2017-08-26T23:27:17.551Z,77.30
2017-08-26T23:29:45.281Z,77.60
2017-08-26T23:32:12.900Z,77.49
2017-08-26T23:34:40.525Z,77.60
2017-08-26T23:37:08.173Z,77.78
2017-08-26T23:39:36.029Z,78.16
2017-08-26T23:42:03.631Z,78.33
2017-08-26T23:44:31.552Z,78.76
2017-08-26T23:46:59.245Z,79.15
2017-08-26T23:49:26.833Z,78.94
2017-08-26T23:51:54.461Z,79.07
2017-08-26T23:54:22.104Z,78.96
2017-08-26T23:56:49.727Z,79.21
2017-08-26T23:59:17.401Z,79.47
